KSQL/SQL METAR and TAF weather

Enter ICAO airport designator
Station Type Date Time Source
KSQL METAR 2019/06/26 15:47 UTC NOAA

KSQL 261547Z 24010KT 10SM FEW025 17/12 A3000


Station Type Date Time Source
KSQL Decoded METAR 2019/06/26 15:47 UTC NOAA

San Carlos Airport, CA, United States (KSQL) 37-31N 122-15W
Jun 26, 2019 - 11:47 AM EDT / 2019.06.26 1547 UTC
Wind: from the WSW (240 degrees) at 12 MPH (10 KT):0
Visibility: 10 mile(s):0
Sky conditions: mostly clear
Temperature: 62 F (17 C)
Dew Point: 53 F (12 C)
Relative Humidity: 72%
Pressure (altimeter): 30 in. Hg (1015 hPa)
ob: KSQL 261547Z 24010KT 10SM FEW025 17/12 A3000
cycle: 16

Station Type Date Time Source
KSQL TAF UTC NOAA

Error!

Example: see airport list